sensor_id;sensor_type;location;lat;lon;timestamp;pressure;altitude;pressure_sealevel;temperature;humidity
79639;BME280;69114;49.108;8.280;2023-12-28T00:02:22;100477.53;;;4.21;91.82
79639;BME280;69114;49.108;8.280;2023-12-28T00:04:47;100476.19;;;4.23;91.58
79639;BME280;69114;49.108;8.280;2023-12-28T00:07:13;100489.09;;;4.18;91.86
79639;BME280;69114;49.108;8.280;2023-12-28T00:09:39;100482.53;;;4.24;91.22
79639;BME280;69114;49.108;8.280;2023-12-28T00:12:04;100483.59;;;4.18;91.72
79639;BME280;69114;49.108;8.280;2023-12-28T00:14:30;100483.59;;;4.18;91.50
79639;BME280;69114;49.108;8.280;2023-12-28T00:16:55;100478.13;;;4.23;91.06
79639;BME280;69114;49.108;8.280;2023-12-28T00:19:21;100485.31;;;4.29;90.86
79639;BME280;69114;49.108;8.280;2023-12-28T00:21:46;100486.47;;;4.38;89.99
79639;BME280;69114;49.108;8.280;2023-12-28T00:24:11;100476.31;;;4.44;89.91
79639;BME280;69114;49.108;8.280;2023-12-28T00:26:37;100485.47;;;4.59;88.44
79639;BME280;69114;49.108;8.280;2023-12-28T00:29:02;100471.44;;;4.61;88.68
79639;BME280;69114;49.108;8.280;2023-12-28T00:31:27;100470.88;;;4.69;87.19
79639;BME280;69114;49.108;8.280;2023-12-28T00:33:52;100480.31;;;4.83;85.06
79639;BME280;69114;49.108;8.280;2023-12-28T00:36:18;100473.97;;;4.83;84.66
79639;BME280;69114;49.108;8.280;2023-12-28T00:38:43;100476.78;;;4.98;84.38
79639;BME280;69114;49.108;8.280;2023-12-28T00:41:08;100484.53;;;5.06;82.96
79639;BME280;69114;49.108;8.280;2023-12-28T00:43:34;100493.44;;;5.19;81.74
79639;BME280;69114;49.108;8.280;2023-12-28T00:45:59;100485.13;;;5.13;82.28
79639;BME280;69114;49.108;8.280;2023-12-28T00:48:24;100500.88;;;5.18;81.00
79639;BME280;69114;49.108;8.280;2023-12-28T00:50:50;100493.97;;;5.16;81.31
79639;BME280;69114;49.108;8.280;2023-12-28T00:53:15;100482.09;;;5.15;81.52
79639;BME280;69114;49.108;8.280;2023-12-28T00:55:41;100491.19;;;5.21;80.67
79639;BME280;69114;49.108;8.280;2023-12-28T00:58:06;100495.38;;;5.23;79.89
79639;BME280;69114;49.108;8.280;2023-12-28T01:00:31;100487.88;;;5.08;80.88
79639;BME280;69114;49.108;8.280;2023-12-28T01:02:56;100485.94;;;5.04;81.55
79639;BME280;69114;49.108;8.280;2023-12-28T01:05:22;100487.06;;;5.18;80.14
79639;BME280;69114;49.108;8.280;2023-12-28T01:07:51;100488.47;;;5.31;79.33
79639;BME280;69114;49.108;8.280;2023-12-28T01:10:16;100494.84;;;5.47;78.74
79639;BME280;69114;49.108;8.280;2023-12-28T01:12:41;100489.88;;;5.49;78.23
79639;BME280;69114;49.108;8.280;2023-12-28T01:15:07;100486.81;;;5.55;77.63
79639;BME280;69114;49.108;8.280;2023-12-28T01:17:33;100493.47;;;5.59;77.66
79639;BME280;69114;49.108;8.280;2023-12-28T01:19:58;100487.41;;;5.73;76.15
79639;BME280;69114;49.108;8.280;2023-12-28T01:22:24;100478.28;;;5.87;74.29
79639;BME280;69114;49.108;8.280;2023-12-28T01:24:49;100484.06;;;5.91;74.13
79639;BME280;69114;49.108;8.280;2023-12-28T01:27:15;100483.00;;;5.92;74.26
79639;BME280;69114;49.108;8.280;2023-12-28T01:29:40;100481.88;;;5.93;74.42
79639;BME280;69114;49.108;8.280;2023-12-28T01:32:05;100500.66;;;5.91;74.66
79639;BME280;69114;49.108;8.280;2023-12-28T01:34:31;100501.81;;;5.95;74.46
79639;BME280;69114;49.108;8.280;2023-12-28T01:36:56;100500.41;;;5.98;73.06
79639;BME280;69114;49.108;8.280;2023-12-28T01:39:21;100512.31;;;5.98;74.34
79639;BME280;69114;49.108;8.280;2023-12-28T01:41:47;100504.00;;;5.93;73.92
79639;BME280;69114;49.108;8.280;2023-12-28T01:44:12;100519.22;;;5.96;74.32
79639;BME280;69114;49.108;8.280;2023-12-28T01:46:37;100525.88;;;5.95;74.19
79639;BME280;69114;49.108;8.280;2023-12-28T01:49:04;100523.38;;;5.98;74.60
79639;BME280;69114;49.108;8.280;2023-12-28T01:51:30;100506.50;;;6.00;74.63
79639;BME280;69114;49.108;8.280;2023-12-28T01:53:57;100511.72;;;6.11;74.28
79639;BME280;69114;49.108;8.280;2023-12-28T01:56:22;100521.72;;;6.18;74.02
79639;BME280;69114;49.108;8.280;2023-12-28T01:58:49;100522.22;;;6.25;73.35
79639;BME280;69114;49.108;8.280;2023-12-28T02:01:14;100531.66;;;6.24;73.15
79639;BME280;69114;49.108;8.280;2023-12-28T02:03:40;100527.75;;;6.35;73.08
79639;BME280;69114;49.108;8.280;2023-12-28T02:06:07;100529.97;;;6.33;72.15
79639;BME280;69114;49.108;8.280;2023-12-28T02:08:32;100521.09;;;6.31;73.07
79639;BME280;69114;49.108;8.280;2023-12-28T02:10:58;100515.06;;;6.24;73.83
79639;BME280;69114;49.108;8.280;2023-12-28T02:13:24;100526.38;;;6.37;71.94
79639;BME280;69114;49.108;8.280;2023-12-28T02:15:54;100512.47;;;6.58;70.79
79639;BME280;69114;49.108;8.280;2023-12-28T02:18:27;100518.28;;;6.66;70.23
79639;BME280;69114;49.108;8.280;2023-12-28T02:20:56;100517.97;;;6.73;69.81
79639;BME280;69114;49.108;8.280;2023-12-28T02:23:23;100521.56;;;6.74;70.92
79639;BME280;69114;49.108;8.280;2023-12-28T02:25:48;100530.41;;;6.76;71.50
79639;BME280;69114;49.108;8.280;2023-12-28T02:28:13;100532.06;;;6.77;69.49
79639;BME280;69114;49.108;8.280;2023-12-28T02:30:39;100527.94;;;6.74;71.29
79639;BME280;69114;49.108;8.280;2023-12-28T02:33:12;100528.78;;;6.75;72.75
79639;BME280;69114;49.108;8.280;2023-12-28T02:36:10;100512.69;;;6.77;72.42
79639;BME280;69114;49.108;8.280;2023-12-28T02:38:37;100519.03;;;6.82;70.15
79639;BME280;69114;49.108;8.280;2023-12-28T02:41:03;100508.53;;;6.84;70.72
79639;BME280;69114;49.108;8.280;2023-12-28T02:43:29;100508.47;;;6.95;70.56
79639;BME280;69114;49.108;8.280;2023-12-28T02:45:54;100516.41;;;7.11;69.26
79639;BME280;69114;49.108;8.280;2023-12-28T02:48:20;100509.94;;;7.26;67.29
79639;BME280;69114;49.108;8.280;2023-12-28T02:50:45;100522.69;;;7.32;67.13
79639;BME280;69114;49.108;8.280;2023-12-28T02:53:11;100507.41;;;7.35;67.51
79639;BME280;69114;49.108;8.280;2023-12-28T02:55:37;100510.75;;;7.37;67.77
79639;BME280;69114;49.108;8.280;2023-12-28T02:58:02;100525.06;;;7.49;66.13
79639;BME280;69114;49.108;8.280;2023-12-28T03:00:28;100510.06;;;7.55;66.15
79639;BME280;69114;49.108;8.280;2023-12-28T03:02:53;100525.59;;;7.56;66.63
79639;BME280;69114;49.108;8.280;2023-12-28T03:05:18;100531.63;;;7.63;65.53
79639;BME280;69114;49.108;8.280;2023-12-28T03:07:44;100529.00;;;7.43;67.97
79639;BME280;69114;49.108;8.280;2023-12-28T03:10:09;100543.44;;;7.35;70.39
79639;BME280;69114;49.108;8.280;2023-12-28T03:12:36;100524.19;;;7.09;73.27
79639;BME280;69114;49.108;8.280;2023-12-28T03:15:02;100533.91;;;7.02;73.69
79639;BME280;69114;49.108;8.280;2023-12-28T03:17:28;100542.56;;;6.85;77.04
79639;BME280;69114;49.108;8.280;2023-12-28T03:19:54;100547.84;;;6.81;78.34
79639;BME280;69114;49.108;8.280;2023-12-28T03:22:19;100530.97;;;6.73;77.34
79639;BME280;69114;49.108;8.280;2023-12-28T03:24:46;100550.69;;;6.40;83.85
79639;BME280;69114;49.108;8.280;2023-12-28T03:27:12;100549.38;;;6.18;86.10
79639;BME280;69114;49.108;8.280;2023-12-28T03:29:37;100561.50;;;5.86;89.11
79639;BME280;69114;49.108;8.280;2023-12-28T03:32:03;100567.00;;;5.65;90.91
79639;BME280;69114;49.108;8.280;2023-12-28T03:34:28;100555.06;;;5.50;93.71
79639;BME280;69114;49.108;8.280;2023-12-28T03:36:55;100562.53;;;5.44;92.79
79639;BME280;69114;49.108;8.280;2023-12-28T03:39:21;100553.69;;;5.42;94.54
79639;BME280;69114;49.108;8.280;2023-12-28T03:41:47;100555.06;;;5.50;92.35
79639;BME280;69114;49.108;8.280;2023-12-28T03:44:12;100548.16;;;5.47;94.88
79639;BME280;69114;49.108;8.280;2023-12-28T03:46:38;100547.06;;;5.48;95.88
79639;BME280;69114;49.108;8.280;2023-12-28T03:49:03;100546.25;;;5.53;94.05
79639;BME280;69114;49.108;8.280;2023-12-28T03:51:29;100550.38;;;5.50;95.86
79639;BME280;69114;49.108;8.280;2023-12-28T03:53:54;100557.03;;;5.59;96.21
79639;BME280;69114;49.108;8.280;2023-12-28T03:56:21;100548.19;;;5.73;94.34
79639;BME280;69114;49.108;8.280;2023-12-28T03:58:47;100546.84;;;5.65;96.44
79639;BME280;69114;49.108;8.280;2023-12-28T04:01:12;100545.97;;;5.64;98.90
79639;BME280;69114;49.108;8.280;2023-12-28T04:03:38;100547.91;;;5.69;99.33
79639;BME280;69114;49.108;8.280;2023-12-28T04:06:03;100546.84;;;5.85;99.56
79639;BME280;69114;49.108;8.280;2023-12-28T04:08:29;100552.63;;;5.79;100.00
79639;BME280;69114;49.108;8.280;2023-12-28T04:10:55;100547.09;;;5.79;100.00
79639;BME280;69114;49.108;8.280;2023-12-28T04:13:20;100561.47;;;5.81;100.00
79639;BME280;69114;49.108;8.280;2023-12-28T04:15:45;100560.41;;;5.97;100.00
79639;BME280;69114;49.108;8.280;2023-12-28T04:18:10;100577.84;;;6.08;100.00
79639;BME280;69114;49.108;8.280;2023-12-28T04:20:36;100578.41;;;6.15;100.00
79639;BME280;69114;49.108;8.280;2023-12-28T04:23:01;100569.81;;;6.16;100.00
79639;BME280;69114;49.108;8.280;2023-12-28T04:25:26;100565.69;;;6.14;100.00
79639;BME280;69114;49.108;8.280;2023-12-28T04:27:52;100558.75;;;6.16;100.00
79639;BME280;69114;49.108;8.280;2023-12-28T04:30:18;100563.72;;;6.20;100.00
79639;BME280;69114;49.108;8.280;2023-12-28T04:32:43;100565.66;;;6.24;99.82
79639;BME280;69114;49.108;8.280;2023-12-28T04:35:09;100569.25;;;6.35;98.36
79639;BME280;69114;49.108;8.280;2023-12-28T04:37:34;100585.28;;;6.48;97.47
79639;BME280;69114;49.108;8.280;2023-12-28T04:40:01;100585.56;;;6.52;99.18
79639;BME280;69114;49.108;8.280;2023-12-28T04:42:28;100586.41;;;6.32;100.00
79639;BME280;69114;49.108;8.280;2023-12-28T04:44:53;100590.84;;;6.12;100.00
79639;BME280;69114;49.108;8.280;2023-12-28T04:47:19;100584.75;;;6.05;100.00
79639;BME280;69114;49.108;8.280;2023-12-28T04:49:44;100586.13;;;5.93;100.00
79639;BME280;69114;49.108;8.280;2023-12-28T04:52:09;100580.84;;;5.86;100.00
79639;BME280;69114;49.108;8.280;2023-12-28T04:54:35;100571.16;;;5.88;100.00
79639;BME280;69114;49.108;8.280;2023-12-28T04:57:00;100570.59;;;5.86;100.00
79639;BME280;69114;49.108;8.280;2023-12-28T04:59:26;100572.53;;;5.91;100.00
79639;BME280;69114;49.108;8.280;2023-12-28T05:01:51;100567.03;;;5.91;100.00
79639;BME280;69114;49.108;8.280;2023-12-28T05:04:16;100554.34;;;6.00;100.00
79639;BME280;69114;49.108;8.280;2023-12-28T05:06:42;100553.22;;;6.06;100.00
79639;BME280;69114;49.108;8.280;2023-12-28T05:09:07;100554.91;;;6.12;100.00
79639;BME280;69114;49.108;8.280;2023-12-28T05:11:32;100564.84;;;6.24;100.00
79639;BME280;69114;49.108;8.280;2023-12-28T05:13:58;100553.22;;;6.37;100.00
79639;BME280;69114;49.108;8.280;2023-12-28T05:16:23;100565.09;;;6.48;100.00
79639;BME280;69114;49.108;8.280;2023-12-28T05:18:48;100565.84;;;6.68;100.00
79639;BME280;69114;49.108;8.280;2023-12-28T05:21:14;100572.47;;;6.83;100.00
79639;BME280;69114;49.108;8.280;2023-12-28T05:23:39;100567.44;;;7.00;100.00
79639;BME280;69114;49.108;8.280;2023-12-28T05:26:05;100568.78;;;7.13;100.00
79639;BME280;69114;49.108;8.280;2023-12-28T05:28:31;100570.69;;;7.17;100.00
79639;BME280;69114;49.108;8.280;2023-12-28T05:30:56;100581.69;;;7.33;100.00
79639;BME280;69114;49.108;8.280;2023-12-28T05:33:24;100588.38;;;7.32;100.00
79639;BME280;69114;49.108;8.280;2023-12-28T05:35:50;100575.59;;;7.36;100.00
79639;BME280;69114;49.108;8.280;2023-12-28T05:38:15;100574.44;;;7.42;100.00
79639;BME280;69114;49.108;8.280;2023-12-28T05:40:40;100582.81;;;7.32;100.00
79639;BME280;69114;49.108;8.280;2023-12-28T05:43:06;100582.88;;;7.22;100.00
79639;BME280;69114;49.108;8.280;2023-12-28T05:45:31;100590.13;;;7.12;100.00
79639;BME280;69114;49.108;8.280;2023-12-28T05:47:56;100598.44;;;7.02;100.00
79639;BME280;69114;49.108;8.280;2023-12-28T05:50:22;100586.84;;;6.95;100.00
79639;BME280;69114;49.108;8.280;2023-12-28T05:52:47;100602.06;;;6.92;100.00
79639;BME280;69114;49.108;8.280;2023-12-28T05:55:13;100595.69;;;6.92;100.00
79639;BME280;69114;49.108;8.280;2023-12-28T05:57:38;100586.28;;;6.98;100.00
79639;BME280;69114;49.108;8.280;2023-12-28T06:00:04;100596.22;;;7.04;100.00
79639;BME280;69114;49.108;8.280;2023-12-28T06:02:31;100599.00;;;7.04;100.00
79639;BME280;69114;49.108;8.280;2023-12-28T06:04:56;100591.25;;;7.01;100.00
79639;BME280;69114;49.108;8.280;2023-12-28T06:07:22;100591.81;;;6.98;100.00
79639;BME280;69114;49.108;8.280;2023-12-28T06:09:47;100609.00;;;6.95;100.00
79639;BME280;69114;49.108;8.280;2023-12-28T06:12:12;100613.41;;;6.96;100.00
79639;BME280;69114;49.108;8.280;2023-12-28T06:14:38;100614.25;;;6.97;100.00
79639;BME280;69114;49.108;8.280;2023-12-28T06:17:03;100612.06;;;6.93;100.00
79639;BME280;69114;49.108;8.280;2023-12-28T06:19:29;100622.84;;;6.95;100.00
79639;BME280;69114;49.108;8.280;2023-12-28T06:21:54;100622.28;;;6.93;100.00
79639;BME280;69114;49.108;8.280;2023-12-28T06:24:22;100624.22;;;6.92;100.00
79639;BME280;69114;49.108;8.280;2023-12-28T06:26:47;100629.75;;;6.98;100.00
79639;BME280;69114;49.108;8.280;2023-12-28T06:29:13;100635.56;;;6.96;100.00
79639;BME280;69114;49.108;8.280;2023-12-28T06:31:38;100619.22;;;7.00;100.00
79639;BME280;69114;49.108;8.280;2023-12-28T06:34:04;100628.88;;;7.12;100.00
79639;BME280;69114;49.108;8.280;2023-12-28T06:36:31;100624.41;;;7.16;100.00
79639;BME280;69114;49.108;8.280;2023-12-28T06:38:57;100634.94;;;7.19;100.00
79639;BME280;69114;49.108;8.280;2023-12-28T06:41:22;100630.53;;;7.18;100.00
79639;BME280;69114;49.108;8.280;2023-12-28T06:43:47;100643.81;;;7.11;100.00
79639;BME280;69114;49.108;8.280;2023-12-28T06:46:13;100641.06;;;7.06;100.00
79639;BME280;69114;49.108;8.280;2023-12-28T06:48:38;100642.78;;;6.92;100.00
79639;BME280;69114;49.108;8.280;2023-12-28T06:51:08;100635.59;;;6.91;100.00
79639;BME280;69114;49.108;8.280;2023-12-28T06:53:33;100644.44;;;6.83;100.00
79639;BME280;69114;49.108;8.280;2023-12-28T06:55:59;100636.72;;;6.80;100.00
79639;BME280;69114;49.108;8.280;2023-12-28T06:58:24;100633.13;;;6.74;100.00
79639;BME280;69114;49.108;8.280;2023-12-28T07:00:49;100633.13;;;6.69;100.00
79639;BME280;69114;49.108;8.280;2023-12-28T07:03:15;100634.53;;;6.61;100.00
79639;BME280;69114;49.108;8.280;2023-12-28T07:05:40;100630.94;;;6.56;100.00
79639;BME280;69114;49.108;8.280;2023-12-28T07:08:06;100622.91;;;6.49;100.00
79639;BME280;69114;49.108;8.280;2023-12-28T07:10:31;100614.31;;;6.46;100.00
79639;BME280;69114;49.108;8.280;2023-12-28T07:12:57;100623.47;;;6.46;100.00
79639;BME280;69114;49.108;8.280;2023-12-28T07:15:22;100636.75;;;6.44;100.00
79639;BME280;69114;49.108;8.280;2023-12-28T07:17:47;100619.59;;;6.42;100.00
79639;BME280;69114;49.108;8.280;2023-12-28T07:20:13;100623.47;;;6.46;100.00
79639;BME280;69114;49.108;8.280;2023-12-28T07:22:38;100643.94;;;6.45;100.00
79639;BME280;69114;49.108;8.280;2023-12-28T07:25:07;100654.47;;;6.48;100.00
79639;BME280;69114;49.108;8.280;2023-12-28T07:27:34;100659.44;;;6.51;100.00
79639;BME280;69114;49.108;8.280;2023-12-28T07:30:00;100668.28;;;6.53;100.00
79639;BME280;69114;49.108;8.280;2023-12-28T07:32:26;100668.28;;;6.53;100.00
79639;BME280;69114;49.108;8.280;2023-12-28T07:34:54;100657.22;;;6.53;100.00
79639;BME280;69114;49.108;8.280;2023-12-28T07:37:20;100662.75;;;6.53;100.00
79639;BME280;69114;49.108;8.280;2023-12-28T07:39:47;100667.19;;;6.54;100.00
79639;BME280;69114;49.108;8.280;2023-12-28T07:42:12;100661.38;;;6.56;100.00
79639;BME280;69114;49.108;8.280;2023-12-28T07:44:38;100672.47;;;6.56;100.00
79639;BME280;69114;49.108;8.280;2023-12-28T07:47:04;100666.09;;;6.60;100.00
79639;BME280;69114;49.108;8.280;2023-12-28T07:49:30;100661.91;;;6.63;100.00
79639;BME280;69114;49.108;8.280;2023-12-28T07:51:56;100661.66;;;6.70;100.00
79639;BME280;69114;49.108;8.280;2023-12-28T07:54:21;100666.34;;;6.69;100.00
79639;BME280;69114;49.108;8.280;2023-12-28T07:56:47;100660.81;;;6.74;100.00
79639;BME280;69114;49.108;8.280;2023-12-28T07:59:12;100666.06;;;6.76;100.00
79639;BME280;69114;49.108;8.280;2023-12-28T08:01:37;100667.44;;;6.78;100.00
79639;BME280;69114;49.108;8.280;2023-12-28T08:04:03;100664.94;;;6.82;100.00
79639;BME280;69114;49.108;8.280;2023-12-28T08:06:29;100665.78;;;6.82;100.00
79639;BME280;69114;49.108;8.280;2023-12-28T08:08:57;100665.22;;;6.85;100.00
79639;BME280;69114;49.108;8.280;2023-12-28T08:11:24;100656.91;;;6.90;100.00
79639;BME280;69114;49.108;8.280;2023-12-28T08:13:49;100670.47;;;6.92;100.00
79639;BME280;69114;49.108;8.280;2023-12-28T08:16:15;100667.44;;;6.93;100.00
79639;BME280;69114;49.108;8.280;2023-12-28T08:18:40;100675.47;;;6.95;100.00
79639;BME280;69114;49.108;8.280;2023-12-28T08:21:05;100679.06;;;6.96;100.00
79639;BME280;69114;49.108;8.280;2023-12-28T08:23:31;100674.91;;;6.98;100.00
79639;BME280;69114;49.108;8.280;2023-12-28T08:25:56;100672.13;;;6.98;100.00
79639;BME280;69114;49.108;8.280;2023-12-28T08:28:21;100684.31;;;6.97;100.00
79639;BME280;69114;49.108;8.280;2023-12-28T08:30:48;100681.53;;;7.02;100.00
79639;BME280;69114;49.108;8.280;2023-12-28T08:33:14;100683.19;;;7.03;100.00
79639;BME280;69114;49.108;8.280;2023-12-28T08:35:39;100684.28;;;7.02;100.00
79639;BME280;69114;49.108;8.280;2023-12-28T08:38:05;100676.25;;;7.06;100.00
79639;BME280;69114;49.108;8.280;2023-12-28T08:40:31;100682.06;;;7.09;100.00
79639;BME280;69114;49.108;8.280;2023-12-28T08:42:56;100690.91;;;7.11;100.00
79639;BME280;69114;49.108;8.280;2023-12-28T08:45:22;100682.59;;;7.11;100.00
79639;BME280;69114;49.108;8.280;2023-12-28T08:47:47;100689.81;;;7.17;100.00
79639;BME280;69114;49.108;8.280;2023-12-28T08:50:13;100683.72;;;7.15;100.00
79639;BME280;69114;49.108;8.280;2023-12-28T08:52:38;100701.44;;;7.19;100.00
79639;BME280;69114;49.108;8.280;2023-12-28T08:55:04;100694.78;;;7.21;100.00
79639;BME280;69114;49.108;8.280;2023-12-28T08:57:30;100687.59;;;7.19;100.00
79639;BME280;69114;49.108;8.280;2023-12-28T08:59:56;100692.00;;;7.21;100.00
79639;BME280;69114;49.108;8.280;2023-12-28T09:02:21;100689.22;;;7.21;100.00
79639;BME280;69114;49.108;8.280;2023-12-28T09:04:48;100694.50;;;7.22;100.00
79639;BME280;69114;49.108;8.280;2023-12-28T09:07:13;100696.19;;;7.18;100.00
79639;BME280;69114;49.108;8.280;2023-12-28T09:09:38;100693.69;;;7.16;100.00
79639;BME280;69114;49.108;8.280;2023-12-28T09:12:04;100701.16;;;7.21;100.00
79639;BME280;69114;49.108;8.280;2023-12-28T09:14:30;100708.06;;;7.24;100.00
79639;BME280;69114;49.108;8.280;2023-12-28T09:16:55;100705.59;;;7.27;100.00
79639;BME280;69114;49.108;8.280;2023-12-28T09:19:21;100709.19;;;7.28;100.00
79639;BME280;69114;49.108;8.280;2023-12-28T09:21:46;100702.00;;;7.27;100.00
79639;BME280;69114;49.108;8.280;2023-12-28T09:24:11;100706.97;;;7.25;100.00
79639;BME280;69114;49.108;8.280;2023-12-28T09:26:37;100714.44;;;7.24;100.00
79639;BME280;69114;49.108;8.280;2023-12-28T09:29:02;100709.72;;;7.25;100.00
79639;BME280;69114;49.108;8.280;2023-12-28T09:31:27;100710.28;;;7.37;100.00
79639;BME280;69114;49.108;8.280;2023-12-28T09:33:53;100705.84;;;7.36;100.00
79639;BME280;69114;49.108;8.280;2023-12-28T09:36:18;100706.94;;;7.35;100.00
79639;BME280;69114;49.108;8.280;2023-12-28T09:38:43;100709.97;;;7.43;100.00
79639;BME280;69114;49.108;8.280;2023-12-28T09:41:13;100716.31;;;7.44;100.00
79639;BME280;69114;49.108;8.280;2023-12-28T09:43:53;100712.44;;;7.50;100.00
79639;BME280;69114;49.108;8.280;2023-12-28T09:46:20;100704.69;;;7.47;100.00
79639;BME280;69114;49.108;8.280;2023-12-28T09:48:45;100706.91;;;7.50;100.00
79639;BME280;69114;49.108;8.280;2023-12-28T09:51:11;100710.50;;;7.51;100.00
79639;BME280;69114;49.108;8.280;2023-12-28T09:53:36;100701.59;;;7.54;100.00
79639;BME280;69114;49.108;8.280;2023-12-28T09:56:02;100696.31;;;7.57;100.00
79639;BME280;69114;49.108;8.280;2023-12-28T09:58:28;100700.19;;;7.61;100.00
79639;BME280;69114;49.108;8.280;2023-12-28T10:00:56;100690.72;;;7.67;100.00
79639;BME280;69114;49.108;8.280;2023-12-28T10:03:21;100692.13;;;7.70;100.00
79639;BME280;69114;49.108;8.280;2023-12-28T10:05:47;100684.34;;;7.72;100.00
79639;BME280;69114;49.108;8.280;2023-12-28T10:08:13;100693.22;;;7.74;100.00
79639;BME280;69114;49.108;8.280;2023-12-28T10:10:40;100675.44;;;7.80;100.00
79639;BME280;69114;49.108;8.280;2023-12-28T10:13:09;100685.09;;;7.83;100.00
79639;BME280;69114;49.108;8.280;2023-12-28T10:15:36;100683.75;;;7.80;100.00
79639;BME280;69114;49.108;8.280;2023-12-28T10:18:01;100689.59;;;7.79;100.00
79639;BME280;69114;49.108;8.280;2023-12-28T10:20:28;100690.97;;;7.76;100.00
79639;BME280;69114;49.108;8.280;2023-12-28T10:22:53;100699.06;;;7.67;100.00
79639;BME280;69114;49.108;8.280;2023-12-28T10:25:19;100697.41;;;7.66;100.00
79639;BME280;69114;49.108;8.280;2023-12-28T10:27:44;100692.97;;;7.65;100.00
79639;BME280;69114;49.108;8.280;2023-12-28T10:30:10;100702.13;;;7.66;100.00
79639;BME280;69114;49.108;8.280;2023-12-28T10:32:39;100695.78;;;7.60;100.00
79639;BME280;69114;49.108;8.280;2023-12-28T10:35:05;100693.81;;;7.61;100.00
79639;BME280;69114;49.108;8.280;2023-12-28T10:37:32;100696.59;;;7.61;100.00
79639;BME280;69114;49.108;8.280;2023-12-28T10:39:59;100686.34;;;7.61;100.00
79639;BME280;69114;49.108;8.280;2023-12-28T10:42:29;100683.56;;;7.61;100.00
79639;BME280;69114;49.108;8.280;2023-12-28T10:45:02;100686.88;;;7.63;100.00
79639;BME280;69114;49.108;8.280;2023-12-28T10:47:28;100692.97;;;7.65;100.00
79639;BME280;69114;49.108;8.280;2023-12-28T10:49:58;100670.19;;;7.74;100.00
79639;BME280;69114;49.108;8.280;2023-12-28T10:52:27;100678.00;;;7.66;100.00
79639;BME280;69114;49.108;8.280;2023-12-28T10:57:29;100681.94;;;7.55;100.00
79639;BME280;69114;49.108;8.280;2023-12-28T11:00:02;100671.97;;;7.49;100.00
79639;BME280;69114;49.108;8.280;2023-12-28T11:02:38;100667.56;;;7.43;100.00
79639;BME280;69114;49.108;8.280;2023-12-28T11:05:04;100670.88;;;7.40;100.00
79639;BME280;69114;49.108;8.280;2023-12-28T11:07:32;100675.91;;;7.33;100.00
79639;BME280;69114;49.108;8.280;2023-12-28T11:10:00;100669.81;;;7.31;100.00
79639;BME280;69114;49.108;8.280;2023-12-28T11:12:26;100679.53;;;7.28;100.00
79639;BME280;69114;49.108;8.280;2023-12-28T11:14:54;100673.16;;;7.28;100.00
79639;BME280;69114;49.108;8.280;2023-12-28T11:17:20;100673.19;;;7.23;100.00
79639;BME280;69114;49.108;8.280;2023-12-28T11:19:48;100674.84;;;7.18;100.00
79639;BME280;69114;49.108;8.280;2023-12-28T11:22:15;100672.63;;;7.15;100.00
79639;BME280;69114;49.108;8.280;2023-12-28T11:24:40;100674.03;;;7.18;100.00
79639;BME280;69114;49.108;8.280;2023-12-28T11:27:06;100669.84;;;7.15;100.00
79639;BME280;69114;49.108;8.280;2023-12-28T11:29:31;100661.56;;;7.15;100.00
79639;BME280;69114;49.108;8.280;2023-12-28T11:31:58;100654.34;;;7.19;100.00
79639;BME280;69114;49.108;8.280;2023-12-28T11:34:31;100642.72;;;7.17;100.00
79639;BME280;69114;49.108;8.280;2023-12-28T11:37:00;100644.41;;;7.13;100.00
79639;BME280;69114;49.108;8.280;2023-12-28T11:39:35;100632.19;;;7.14;100.00
79639;BME280;69114;49.108;8.280;2023-12-28T11:42:06;100641.59;;;7.18;100.00
79639;BME280;69114;49.108;8.280;2023-12-28T11:44:42;100634.94;;;7.25;100.00
79639;BME280;69114;49.108;8.280;2023-12-28T11:47:13;100637.97;;;7.28;100.00
79639;BME280;69114;49.108;8.280;2023-12-28T11:49:39;100627.19;;;7.27;100.00
79639;BME280;69114;49.108;8.280;2023-12-28T11:52:08;100626.03;;;7.33;100.00
79639;BME280;69114;49.108;8.280;2023-12-28T11:54:36;100625.72;;;7.39;100.00
79639;BME280;69114;49.108;8.280;2023-12-28T11:57:01;100624.88;;;7.44;100.00
79639;BME280;69114;49.108;8.280;2023-12-28T11:59:26;100634.00;;;7.44;100.00
79639;BME280;69114;49.108;8.280;2023-12-28T12:01:52;100627.88;;;7.53;100.00
79639;BME280;69114;49.108;8.280;2023-12-28T12:04:19;100623.72;;;7.55;100.00
79639;BME280;69114;49.108;8.280;2023-12-28T12:06:45;100633.41;;;7.58;100.00
79639;BME280;69114;49.108;8.280;2023-12-28T12:09:15;100627.00;;;7.62;100.00
79639;BME280;69114;49.108;8.280;2023-12-28T12:11:40;100627.53;;;7.69;100.00
79639;BME280;69114;49.108;8.280;2023-12-28T12:14:12;100631.63;;;7.77;100.00
79639;BME280;69114;49.108;8.280;2023-12-28T12:16:37;100635.78;;;7.80;100.00
79639;BME280;69114;49.108;8.280;2023-12-28T12:19:06;100628.22;;;7.90;100.00
79639;BME280;69114;49.108;8.280;2023-12-28T12:21:33;100625.16;;;7.92;100.00
79639;BME280;69114;49.108;8.280;2023-12-28T12:23:59;100617.91;;;7.96;100.00
79639;BME280;69114;49.108;8.280;2023-12-28T12:26:26;100611.22;;;8.02;100.00
79639;BME280;69114;49.108;8.280;2023-12-28T12:28:51;100609.84;;;8.00;100.00
79639;BME280;69114;49.108;8.280;2023-12-28T12:31:17;100618.44;;;8.03;100.00
79639;BME280;69114;49.108;8.280;2023-12-28T12:33:43;100610.34;;;8.12;100.00
79639;BME280;69114;49.108;8.280;2023-12-28T12:36:08;100605.84;;;8.16;100.00
79639;BME280;69114;49.108;8.280;2023-12-28T12:38:34;100613.59;;;8.19;100.00
79639;BME280;69114;49.108;8.280;2023-12-28T12:41:00;100620.00;;;8.14;100.00
79639;BME280;69114;49.108;8.280;2023-12-28T12:43:25;100617.75;;;8.16;100.00
79639;BME280;69114;49.108;8.280;2023-12-28T12:45:52;100610.00;;;8.18;100.00
79639;BME280;69114;49.108;8.280;2023-12-28T12:48:17;100603.53;;;8.28;100.00
79639;BME280;69114;49.108;8.280;2023-12-28T12:50:43;100612.44;;;8.25;100.00